createdAt,value
2022-07-26T00:01:37.053Z,20.90
2022-07-26T00:04:08.186Z,20.84
2022-07-26T00:06:39.294Z,20.80
2022-07-26T00:09:10.356Z,20.76
2022-07-26T00:11:41.727Z,20.74
2022-07-26T00:14:12.762Z,20.71
2022-07-26T00:16:43.869Z,20.68
2022-07-26T00:19:15.170Z,20.64
2022-07-26T00:21:46.248Z,20.59
2022-07-26T00:24:16.996Z,20.58
2022-07-26T00:26:48.163Z,20.55
2022-07-26T00:29:18.869Z,20.49
2022-07-26T00:31:49.811Z,20.44
2022-07-26T00:34:20.659Z,20.39
2022-07-26T00:36:51.779Z,20.36
2022-07-26T00:39:25.030Z,20.32
2022-07-26T00:41:55.857Z,20.29
2022-07-26T00:44:36.716Z,20.25
2022-07-26T00:47:08.234Z,20.22
2022-07-26T00:49:39.312Z,20.20
2022-07-26T00:52:11.154Z,20.18
2022-07-26T00:54:44.005Z,20.14
2022-07-26T00:57:15.237Z,20.11
2022-07-26T00:59:43.567Z,20.10
2022-07-26T01:02:15.118Z,20.06
2022-07-26T01:04:46.689Z,20.06
2022-07-26T01:07:17.466Z,20.04
2022-07-26T01:09:48.112Z,20.02
2022-07-26T01:12:18.936Z,19.99
2022-07-26T01:14:49.487Z,19.95
2022-07-26T01:17:20.355Z,19.92
2022-07-26T01:19:52.677Z,19.89
2022-07-26T01:22:22.001Z,19.88
2022-07-26T01:24:52.644Z,19.90
2022-07-26T01:27:21.700Z,19.89
2022-07-26T01:29:52.610Z,19.83
2022-07-26T01:32:20.681Z,19.79
2022-07-26T01:34:51.527Z,19.75
2022-07-26T01:37:22.489Z,19.73
2022-07-26T01:39:53.480Z,19.69
2022-07-26T01:42:24.297Z,19.63
2022-07-26T01:44:55.030Z,19.60
2022-07-26T01:47:25.793Z,19.59
2022-07-26T01:49:56.470Z,19.61
2022-07-26T01:52:27.709Z,19.59
2022-07-26T01:54:59.146Z,19.56
2022-07-26T01:57:29.848Z,19.56
2022-07-26T01:59:59.303Z,19.53
2022-07-26T02:02:30.243Z,19.49
2022-07-26T02:05:02.114Z,19.45
2022-07-26T02:07:37.475Z,19.44
2022-07-26T02:10:12.134Z,19.43
2022-07-26T02:12:44.104Z,19.39
2022-07-26T02:15:14.941Z,19.34
2022-07-26T02:17:45.990Z,19.30
2022-07-26T02:20:17.218Z,19.27
2022-07-26T02:22:48.233Z,19.25
2022-07-26T02:25:19.468Z,19.22
2022-07-26T02:27:50.147Z,19.20
2022-07-26T02:30:21.083Z,19.17
2022-07-26T02:32:52.174Z,19.15
2022-07-26T02:35:23.843Z,19.12
2022-07-26T02:37:54.927Z,19.08
2022-07-26T02:40:25.736Z,19.07
2022-07-26T02:42:56.657Z,19.06
2022-07-26T02:45:27.911Z,19.03
2022-07-26T02:47:59.004Z,19.01
2022-07-26T02:50:30.324Z,19.03
2022-07-26T02:53:00.981Z,19.04
2022-07-26T02:55:33.673Z,19.03
2022-07-26T02:58:04.641Z,19.03
2022-07-26T03:00:35.709Z,19.03
2022-07-26T03:03:06.722Z,19.03
2022-07-26T03:05:37.797Z,19.00
2022-07-26T03:08:08.835Z,18.98
2022-07-26T03:10:39.797Z,18.96
2022-07-26T03:13:07.742Z,18.93
2022-07-26T03:15:38.492Z,18.92
2022-07-26T03:18:09.404Z,18.92
2022-07-26T03:20:40.501Z,18.92
2022-07-26T03:23:11.311Z,18.90
2022-07-26T03:25:42.832Z,18.90
2022-07-26T03:28:19.208Z,18.92
2022-07-26T03:30:50.591Z,18.90
2022-07-26T03:33:21.799Z,18.90
2022-07-26T03:35:52.666Z,18.90
2022-07-26T03:38:24.813Z,18.88
2022-07-26T03:40:55.832Z,18.89
2022-07-26T03:43:27.622Z,18.89
2022-07-26T03:45:58.391Z,18.90
2022-07-26T03:48:30.698Z,18.90
2022-07-26T03:51:01.663Z,18.92
2022-07-26T03:53:34.800Z,18.93
2022-07-26T03:56:24.782Z,18.94
2022-07-26T03:58:55.895Z,18.95
2022-07-26T04:01:26.907Z,18.95
2022-07-26T04:03:58.117Z,18.98
2022-07-26T04:06:29.281Z,19.01
2022-07-26T04:09:00.585Z,19.04
2022-07-26T04:11:31.526Z,19.06
2022-07-26T04:14:02.572Z,19.09
2022-07-26T04:16:53.854Z,19.14
2022-07-26T04:19:24.488Z,19.23
2022-07-26T04:21:55.564Z,19.33
2022-07-26T04:24:26.410Z,19.41
2022-07-26T04:26:57.302Z,19.49
2022-07-26T04:29:27.929Z,19.57
2022-07-26T04:31:58.754Z,19.68
2022-07-26T04:34:29.726Z,19.78
2022-07-26T04:37:01.058Z,19.84
2022-07-26T04:39:36.836Z,19.91
2022-07-26T04:42:07.930Z,19.99
2022-07-26T04:44:38.962Z,20.06
2022-07-26T04:47:12.852Z,20.11
2022-07-26T04:49:45.398Z,20.17
2022-07-26T04:52:16.109Z,20.27
2022-07-26T04:54:48.043Z,20.36
2022-07-26T04:57:19.067Z,20.45
2022-07-26T05:00:03.400Z,20.57
2022-07-26T05:02:40.147Z,20.69
2022-07-26T05:05:10.964Z,20.78
2022-07-26T05:07:48.011Z,20.90
2022-07-26T05:10:19.685Z,21.01
2022-07-26T05:12:51.067Z,21.15
2022-07-26T05:15:22.153Z,21.29
2022-07-26T05:17:57.111Z,21.42
2022-07-26T05:20:28.197Z,21.50
2022-07-26T05:22:59.372Z,21.60
2022-07-26T05:25:30.476Z,21.72
2022-07-26T05:28:01.821Z,21.86
2022-07-26T05:30:32.648Z,21.99
2022-07-26T05:33:03.269Z,22.12
2022-07-26T05:35:33.986Z,22.26
2022-07-26T05:38:04.930Z,22.39
2022-07-26T05:40:35.804Z,22.48
2022-07-26T05:43:06.651Z,22.62
2022-07-26T05:45:38.794Z,22.77
2022-07-26T05:48:10.192Z,22.92
2022-07-26T05:50:44.176Z,23.12
2022-07-26T05:53:15.360Z,23.34
2022-07-26T05:55:50.097Z,23.58
2022-07-26T05:58:21.339Z,23.87
2022-07-26T06:00:52.198Z,24.15
2022-07-26T06:03:23.481Z,24.43
2022-07-26T06:05:55.301Z,24.75
2022-07-26T06:08:26.736Z,25.13
2022-07-26T06:10:58.137Z,25.52
2022-07-26T06:13:26.372Z,25.89
2022-07-26T06:15:57.257Z,26.23
2022-07-26T06:18:30.806Z,26.58
2022-07-26T06:21:02.548Z,26.97
2022-07-26T06:23:35.124Z,27.33
2022-07-26T06:26:06.645Z,27.65
2022-07-26T06:28:39.582Z,27.99
2022-07-26T06:31:10.717Z,28.40
2022-07-26T06:33:41.772Z,28.74
2022-07-26T06:36:12.876Z,29.22
2022-07-26T06:38:51.572Z,29.76
2022-07-26T06:41:22.614Z,30.21
2022-07-26T06:43:57.364Z,30.58
2022-07-26T06:46:29.559Z,31.10
2022-07-26T06:49:00.786Z,31.58
2022-07-26T06:51:34.564Z,31.97
2022-07-26T06:54:06.031Z,32.31
2022-07-26T06:56:37.153Z,32.79
2022-07-26T06:59:11.075Z,32.96
2022-07-26T07:01:58.752Z,33.30
2022-07-26T07:04:34.006Z,33.62
2022-07-26T07:07:08.640Z,33.90
2022-07-26T07:09:40.211Z,34.19
2022-07-26T07:12:11.071Z,34.11
2022-07-26T07:14:41.935Z,34.17
2022-07-26T07:17:17.138Z,34.08
2022-07-26T07:19:50.699Z,34.06
2022-07-26T07:22:21.618Z,34.21
2022-07-26T07:24:52.435Z,34.47
2022-07-26T07:27:23.280Z,34.50
2022-07-26T07:29:54.272Z,34.46
2022-07-26T07:32:27.416Z,34.46
2022-07-26T07:34:59.428Z,34.68
2022-07-26T07:37:52.356Z,34.81
2022-07-26T07:40:23.216Z,34.82
2022-07-26T07:42:53.900Z,35.05
2022-07-26T07:45:26.032Z,35.41
2022-07-26T07:47:56.805Z,35.61
2022-07-26T07:50:28.421Z,35.68
2022-07-26T07:52:59.806Z,35.53
2022-07-26T07:55:43.690Z,35.81
2022-07-26T07:58:18.935Z,35.79
2022-07-26T08:00:50.027Z,35.92
2022-07-26T08:03:20.945Z,36.23
2022-07-26T08:05:52.188Z,36.34
2022-07-26T08:08:30.133Z,36.26
2022-07-26T08:11:08.460Z,36.44
2022-07-26T08:13:37.705Z,36.57
2022-07-26T08:16:09.496Z,36.75
2022-07-26T08:18:55.712Z,37.05
2022-07-26T08:21:28.991Z,37.19
2022-07-26T08:24:00.319Z,37.30
2022-07-26T08:26:32.449Z,37.41
2022-07-26T08:29:03.671Z,37.47
2022-07-26T08:31:44.458Z,37.64
2022-07-26T08:34:22.930Z,37.41
2022-07-26T08:37:15.307Z,37.10
2022-07-26T08:39:46.946Z,37.15
2022-07-26T08:42:22.815Z,37.44
2022-07-26T08:44:55.091Z,37.62
2022-07-26T08:47:37.949Z,37.92
2022-07-26T08:50:14.101Z,38.05
2022-07-26T08:52:45.987Z,38.12
2022-07-26T08:55:21.037Z,38.18
2022-07-26T08:57:54.553Z,38.03
2022-07-26T09:00:26.888Z,38.27
2022-07-26T09:02:59.425Z,38.55
2022-07-26T09:05:37.093Z,38.68
2022-07-26T09:08:25.009Z,38.72
2022-07-26T09:10:56.517Z,38.62
2022-07-26T09:13:24.594Z,38.55
2022-07-26T09:16:14.334Z,38.46
2022-07-26T09:18:49.551Z,38.50
2022-07-26T09:21:32.810Z,38.37
2022-07-26T09:24:03.986Z,38.55
2022-07-26T09:26:35.158Z,38.64
2022-07-26T09:29:30.202Z,38.54
2022-07-26T09:32:20.986Z,38.63
2022-07-26T09:34:59.355Z,38.64
2022-07-26T09:37:41.265Z,38.39
2022-07-26T09:40:16.330Z,38.28
2022-07-26T09:43:05.697Z,38.43
2022-07-26T09:45:36.959Z,38.43
2022-07-26T09:48:15.391Z,38.50
2022-07-26T09:50:48.612Z,38.42
2022-07-26T09:53:22.955Z,38.41
2022-07-26T09:55:57.004Z,38.42
2022-07-26T09:58:29.457Z,38.38
2022-07-26T10:01:02.490Z,38.53
2022-07-26T10:03:32.818Z,38.51
2022-07-26T10:06:04.527Z,38.37
2022-07-26T10:08:35.584Z,38.51
2022-07-26T10:11:09.725Z,38.66
2022-07-26T10:13:38.968Z,38.78
2022-07-26T10:16:30.068Z,38.76
2022-07-26T10:19:04.822Z,38.79
2022-07-26T10:21:36.000Z,38.91
2022-07-26T10:24:27.088Z,38.44
2022-07-26T10:26:58.116Z,37.66
2022-07-26T10:29:29.469Z,37.15
2022-07-26T10:32:09.240Z,37.26
2022-07-26T10:34:40.379Z,37.28
2022-07-26T10:37:20.279Z,37.21
2022-07-26T10:40:11.869Z,37.24
2022-07-26T10:42:45.875Z,37.50
2022-07-26T10:45:22.325Z,37.70
2022-07-26T10:48:13.012Z,38.01
2022-07-26T10:50:45.518Z,38.09
2022-07-26T10:53:48.938Z,38.04
2022-07-26T10:56:20.263Z,38.09
2022-07-26T10:58:53.333Z,37.98
2022-07-26T11:01:43.368Z,37.64
2022-07-26T11:04:24.828Z,37.24
2022-07-26T11:07:07.970Z,36.96
2022-07-26T11:09:40.589Z,36.63
2022-07-26T11:12:18.643Z,36.32
2022-07-26T11:14:54.556Z,35.83
2022-07-26T11:17:34.233Z,35.57
2022-07-26T11:20:12.501Z,35.51
2022-07-26T11:22:50.903Z,35.89
2022-07-26T11:25:25.079Z,36.24
2022-07-26T11:28:07.172Z,36.65
2022-07-26T11:30:56.465Z,36.87
2022-07-26T11:33:42.288Z,36.96
2022-07-26T11:36:20.695Z,36.95
2022-07-26T11:39:16.563Z,36.58
2022-07-26T11:41:47.743Z,36.35
2022-07-26T11:44:25.086Z,36.17
2022-07-26T11:46:58.073Z,36.12
2022-07-26T11:49:52.759Z,36.29
2022-07-26T11:52:28.936Z,36.35
2022-07-26T11:54:59.890Z,36.56
2022-07-26T11:57:32.712Z,36.67
2022-07-26T12:00:02.144Z,36.65
2022-07-26T12:02:56.289Z,36.74
2022-07-26T12:05:27.485Z,36.93
2022-07-26T12:08:07.584Z,36.85
2022-07-26T12:10:44.389Z,36.58
2022-07-26T12:13:25.055Z,36.52
2022-07-26T12:15:58.476Z,36.43
2022-07-26T12:18:33.177Z,36.09
2022-07-26T12:21:18.351Z,35.91
2022-07-26T12:24:12.238Z,35.70
2022-07-26T12:26:55.092Z,35.70
2022-07-26T12:29:36.500Z,35.74
2022-07-26T12:32:13.489Z,35.93
2022-07-26T12:35:03.136Z,35.86
2022-07-26T12:37:47.134Z,35.82
2022-07-26T12:40:27.379Z,35.94
2022-07-26T12:43:04.780Z,35.96
2022-07-26T12:45:36.295Z,35.91
2022-07-26T12:48:13.208Z,35.61
2022-07-26T12:50:54.424Z,35.39
2022-07-26T12:53:37.952Z,35.37
2022-07-26T12:56:11.220Z,35.39
2022-07-26T12:58:42.049Z,35.39
2022-07-26T13:01:13.059Z,35.40
2022-07-26T13:03:44.348Z,35.45
2022-07-26T13:06:15.468Z,35.44
2022-07-26T13:08:46.459Z,35.64
2022-07-26T13:11:17.557Z,35.79
2022-07-26T13:13:46.916Z,35.69
2022-07-26T13:16:18.155Z,35.71
2022-07-26T13:18:52.527Z,35.76
2022-07-26T13:21:23.526Z,35.74
2022-07-26T13:23:54.271Z,35.70
2022-07-26T13:26:25.163Z,35.62
2022-07-26T13:28:55.939Z,35.58
2022-07-26T13:31:29.313Z,35.55
2022-07-26T13:34:00.641Z,35.44
2022-07-26T13:36:32.232Z,35.27
2022-07-26T13:39:03.656Z,35.21
2022-07-26T13:41:37.472Z,35.13
2022-07-26T13:44:11.453Z,35.02
2022-07-26T13:46:45.866Z,35.01
2022-07-26T13:49:17.224Z,34.96
2022-07-26T13:51:57.565Z,34.91
2022-07-26T13:54:33.513Z,34.86
2022-07-26T13:57:05.176Z,34.84
2022-07-26T13:59:34.558Z,34.90
2022-07-26T14:02:07.647Z,34.96
2022-07-26T14:04:38.744Z,34.95
2022-07-26T14:07:09.370Z,34.95
2022-07-26T14:09:40.373Z,34.96
2022-07-26T14:12:15.403Z,34.95
2022-07-26T14:14:49.123Z,34.78
2022-07-26T14:17:20.098Z,34.78
2022-07-26T14:19:51.838Z,34.82
2022-07-26T14:22:25.737Z,34.72
2022-07-26T14:24:57.070Z,34.58
2022-07-26T14:27:28.106Z,34.51
2022-07-26T14:29:58.995Z,34.48
2022-07-26T14:32:30.022Z,34.47
2022-07-26T14:35:01.758Z,34.48
2022-07-26T14:37:43.893Z,34.41
2022-07-26T14:40:17.261Z,34.32
2022-07-26T14:42:48.647Z,34.24
2022-07-26T14:45:20.132Z,34.18
2022-07-26T14:47:51.389Z,34.18
2022-07-26T14:50:34.973Z,34.16
2022-07-26T14:53:16.135Z,34.21
2022-07-26T14:55:47.403Z,34.12
2022-07-26T14:58:18.163Z,34.04
2022-07-26T15:00:47.866Z,34.03
2022-07-26T15:03:18.958Z,34.03
2022-07-26T15:05:50.222Z,33.93
2022-07-26T15:08:21.118Z,33.77
2022-07-26T15:10:51.878Z,33.59
2022-07-26T15:13:22.734Z,33.53
2022-07-26T15:15:54.470Z,33.49
2022-07-26T15:18:25.208Z,33.42
2022-07-26T15:20:57.844Z,33.29
2022-07-26T15:23:29.247Z,33.24
2022-07-26T15:25:59.970Z,33.19
2022-07-26T15:28:30.777Z,33.20
2022-07-26T15:31:01.587Z,33.19
2022-07-26T15:33:32.887Z,33.18
2022-07-26T15:36:05.885Z,33.13
2022-07-26T15:38:37.300Z,33.03
2022-07-26T15:41:07.881Z,32.95
2022-07-26T15:43:47.985Z,32.93
2022-07-26T15:46:20.261Z,32.95
2022-07-26T15:48:54.045Z,32.96
2022-07-26T15:51:29.744Z,32.91
2022-07-26T15:54:05.239Z,32.87
2022-07-26T15:56:36.745Z,32.86
2022-07-26T15:59:08.591Z,32.87
2022-07-26T16:01:39.474Z,32.89
2022-07-26T16:04:11.330Z,32.92
2022-07-26T16:06:42.562Z,32.94
2022-07-26T16:09:17.340Z,32.93
2022-07-26T16:11:49.082Z,32.89
2022-07-26T16:14:18.895Z,32.84
2022-07-26T16:16:49.660Z,32.79
2022-07-26T16:19:20.523Z,32.73
2022-07-26T16:21:51.490Z,32.72
2022-07-26T16:24:25.662Z,32.70
2022-07-26T16:26:56.825Z,32.65
2022-07-26T16:29:27.820Z,32.59
2022-07-26T16:31:58.414Z,32.54
2022-07-26T16:34:31.299Z,32.49
2022-07-26T16:37:04.372Z,32.44
2022-07-26T16:39:35.731Z,32.36
2022-07-26T16:42:07.412Z,32.32
2022-07-26T16:44:38.912Z,32.26
2022-07-26T16:47:11.156Z,32.21
2022-07-26T16:49:45.441Z,32.15
2022-07-26T16:52:16.617Z,32.11
2022-07-26T16:54:50.773Z,32.04
2022-07-26T16:57:21.727Z,31.99
2022-07-26T17:00:00.434Z,31.94
2022-07-26T17:02:31.533Z,31.89
2022-07-26T17:05:03.527Z,31.85
2022-07-26T17:07:36.807Z,31.78
2022-07-26T17:10:09.136Z,31.72
2022-07-26T17:12:41.187Z,31.66
2022-07-26T17:15:12.055Z,31.57
2022-07-26T17:17:48.656Z,31.48
2022-07-26T17:20:19.934Z,31.41
2022-07-26T17:22:51.012Z,31.32
2022-07-26T17:25:21.980Z,31.23
2022-07-26T17:28:12.497Z,31.14
2022-07-26T17:30:47.655Z,31.02
2022-07-26T17:33:19.193Z,30.92
2022-07-26T17:35:50.481Z,30.79
2022-07-26T17:38:21.551Z,30.67
2022-07-26T17:40:57.479Z,30.54
2022-07-26T17:43:36.379Z,30.41
2022-07-26T17:46:08.328Z,30.28
2022-07-26T17:48:39.808Z,30.17
2022-07-26T17:51:10.622Z,30.06
2022-07-26T17:53:42.994Z,29.95
2022-07-26T17:56:14.191Z,29.84
2022-07-26T17:58:45.399Z,29.72
2022-07-26T18:01:16.256Z,29.60
2022-07-26T18:03:47.348Z,29.50
2022-07-26T18:06:19.063Z,29.39
2022-07-26T18:08:50.005Z,29.30
2022-07-26T18:11:20.947Z,29.18
2022-07-26T18:13:49.043Z,29.05
2022-07-26T18:16:20.050Z,28.88
2022-07-26T18:18:51.051Z,28.71
2022-07-26T18:21:21.668Z,28.54
2022-07-26T18:24:14.682Z,28.38
2022-07-26T18:26:43.887Z,28.22
2022-07-26T18:29:16.699Z,28.06
2022-07-26T18:31:48.270Z,27.94
2022-07-26T18:34:19.636Z,27.82
2022-07-26T18:36:50.873Z,27.70
2022-07-26T18:39:21.903Z,27.56
2022-07-26T18:41:53.695Z,27.43
2022-07-26T18:44:24.437Z,27.30
2022-07-26T18:46:56.568Z,27.14
2022-07-26T18:49:31.032Z,27.01
2022-07-26T18:52:08.337Z,26.87
2022-07-26T18:54:40.377Z,26.73
2022-07-26T18:57:11.523Z,26.62
2022-07-26T18:59:42.980Z,26.53
2022-07-26T19:02:14.281Z,26.44
2022-07-26T19:04:45.461Z,26.36
2022-07-26T19:07:16.506Z,26.27
2022-07-26T19:09:45.933Z,26.18
2022-07-26T19:12:17.799Z,26.11
2022-07-26T19:14:48.740Z,26.05
2022-07-26T19:17:20.571Z,25.98
2022-07-26T19:19:51.904Z,25.91
2022-07-26T19:22:24.186Z,25.85
2022-07-26T19:24:55.431Z,25.80
2022-07-26T19:27:28.056Z,25.74
2022-07-26T19:29:58.896Z,25.69
2022-07-26T19:32:33.523Z,25.64
2022-07-26T19:35:05.432Z,25.58
2022-07-26T19:37:38.597Z,25.50
2022-07-26T19:40:11.630Z,25.44
2022-07-26T19:42:42.596Z,25.38
2022-07-26T19:45:12.913Z,25.31
2022-07-26T19:47:44.159Z,25.25
2022-07-26T19:50:15.267Z,25.20
2022-07-26T19:52:46.094Z,25.13
2022-07-26T19:55:18.109Z,25.06
2022-07-26T19:57:49.443Z,24.98
2022-07-26T20:00:20.009Z,24.91
2022-07-26T20:02:51.251Z,24.84
2022-07-26T20:05:22.523Z,24.75
2022-07-26T20:07:53.396Z,24.68
2022-07-26T20:10:28.531Z,24.60
2022-07-26T20:13:06.801Z,24.54
2022-07-26T20:15:37.929Z,24.49
2022-07-26T20:18:10.269Z,24.43
2022-07-26T20:20:41.203Z,24.38
2022-07-26T20:23:15.461Z,24.34
2022-07-26T20:25:46.430Z,24.29
2022-07-26T20:28:17.182Z,24.23
2022-07-26T20:30:53.492Z,24.18
2022-07-26T20:33:25.626Z,24.14
2022-07-26T20:35:56.500Z,24.10
2022-07-26T20:38:27.507Z,24.07
2022-07-26T20:40:58.658Z,24.03
2022-07-26T20:43:35.041Z,24.00
2022-07-26T20:46:05.841Z,23.96
2022-07-26T20:48:37.108Z,23.91
2022-07-26T20:51:13.493Z,23.85
2022-07-26T20:53:45.409Z,23.79
2022-07-26T20:56:16.537Z,23.73
2022-07-26T20:58:48.698Z,23.65
2022-07-26T21:01:20.971Z,23.58
2022-07-26T21:03:53.217Z,23.52
2022-07-26T21:06:24.373Z,23.45
2022-07-26T21:09:00.314Z,23.41
2022-07-26T21:11:39.990Z,23.36
2022-07-26T21:14:09.293Z,23.33
2022-07-26T21:16:40.135Z,23.29
2022-07-26T21:19:11.242Z,23.26
2022-07-26T21:21:44.529Z,23.20
2022-07-26T21:24:15.681Z,23.16
2022-07-26T21:26:46.719Z,23.11
2022-07-26T21:29:17.734Z,23.07
2022-07-26T21:31:47.741Z,23.02
2022-07-26T21:34:18.688Z,22.98
2022-07-26T21:36:49.729Z,22.93
2022-07-26T21:39:21.029Z,22.87
2022-07-26T21:41:51.998Z,22.82
2022-07-26T21:44:23.307Z,22.77
2022-07-26T21:46:55.225Z,22.72
2022-07-26T21:49:26.055Z,22.66
2022-07-26T21:51:57.185Z,22.61
2022-07-26T21:54:26.303Z,22.57
2022-07-26T21:56:57.122Z,22.52
2022-07-26T21:59:27.876Z,22.49
2022-07-26T22:02:00.062Z,22.46
2022-07-26T22:04:31.269Z,22.42
2022-07-26T22:07:02.419Z,22.40
2022-07-26T22:09:36.814Z,22.38
2022-07-26T22:12:08.037Z,22.35
2022-07-26T22:14:41.036Z,22.33
2022-07-26T22:17:11.854Z,22.32
2022-07-26T22:19:42.701Z,22.29
2022-07-26T22:22:16.430Z,22.25
2022-07-26T22:24:47.117Z,22.22
2022-07-26T22:27:19.594Z,22.19
2022-07-26T22:29:50.886Z,22.15
2022-07-26T22:32:21.840Z,22.13
2022-07-26T22:34:52.700Z,22.09
2022-07-26T22:37:23.729Z,22.05
2022-07-26T22:39:54.477Z,22.03
2022-07-26T22:42:25.421Z,21.99
2022-07-26T22:44:56.540Z,21.96
2022-07-26T22:47:27.100Z,21.93
2022-07-26T22:49:58.191Z,21.91
2022-07-26T22:52:29.383Z,21.88
2022-07-26T22:54:59.933Z,21.86
2022-07-26T22:57:30.873Z,21.85
2022-07-26T23:00:02.496Z,21.86
2022-07-26T23:02:33.809Z,21.85
2022-07-26T23:05:05.011Z,21.83
2022-07-26T23:07:36.100Z,21.82
2022-07-26T23:10:09.812Z,21.82
2022-07-26T23:12:40.817Z,21.80
2022-07-26T23:15:13.336Z,21.76
2022-07-26T23:17:44.405Z,21.74
2022-07-26T23:20:15.912Z,21.72
2022-07-26T23:22:47.191Z,21.70
2022-07-26T23:25:18.300Z,21.68
2022-07-26T23:27:49.490Z,21.65
2022-07-26T23:30:20.779Z,21.63
2022-07-26T23:32:51.740Z,21.61
2022-07-26T23:35:21.712Z,21.61
2022-07-26T23:37:52.534Z,21.60
2022-07-26T23:40:25.239Z,21.56
2022-07-26T23:42:56.459Z,21.53
2022-07-26T23:45:27.318Z,21.50
2022-07-26T23:47:57.966Z,21.44
2022-07-26T23:50:28.796Z,21.41
2022-07-26T23:53:00.608Z,21.39
2022-07-26T23:55:35.782Z,21.39
2022-07-26T23:58:07.131Z,21.38
